sensor_id;sensor_type;location;lat;lon;timestamp;P1;durP1;ratioP1;P2;durP2;ratioP2
7759;SDS011;3924;48.830;9.262;2024-02-21T00:01:17;4.80;;;2.77;;
7759;SDS011;3924;48.830;9.262;2024-02-21T00:03:45;6.93;;;2.93;;
7759;SDS011;3924;48.830;9.262;2024-02-21T00:06:12;3.73;;;2.90;;
7759;SDS011;3924;48.830;9.262;2024-02-21T00:08:38;6.73;;;2.97;;
7759;SDS011;3924;48.830;9.262;2024-02-21T00:11:05;6.70;;;2.90;;
7759;SDS011;3924;48.830;9.262;2024-02-21T00:13:32;5.63;;;2.90;;
7759;SDS011;3924;48.830;9.262;2024-02-21T00:16:00;7.87;;;3.07;;
7759;SDS011;3924;48.830;9.262;2024-02-21T00:18:27;6.87;;;3.07;;
7759;SDS011;3924;48.830;9.262;2024-02-21T00:20:56;9.20;;;3.27;;
7759;SDS011;3924;48.830;9.262;2024-02-21T00:23:22;7.27;;;2.97;;
7759;SDS011;3924;48.830;9.262;2024-02-21T00:25:49;6.67;;;3.00;;
7759;SDS011;3924;48.830;9.262;2024-02-21T00:28:16;8.93;;;3.00;;
7759;SDS011;3924;48.830;9.262;2024-02-21T00:30:43;5.47;;;2.80;;
7759;SDS011;3924;48.830;9.262;2024-02-21T00:33:10;7.03;;;2.90;;
7759;SDS011;3924;48.830;9.262;2024-02-21T00:35:37;9.23;;;3.27;;
7759;SDS011;3924;48.830;9.262;2024-02-21T00:38:03;6.47;;;2.73;;
7759;SDS011;3924;48.830;9.262;2024-02-21T00:40:30;5.93;;;2.77;;
7759;SDS011;3924;48.830;9.262;2024-02-21T00:42:57;11.70;;;2.77;;
7759;SDS011;3924;48.830;9.262;2024-02-21T00:45:23;6.30;;;2.80;;
7759;SDS011;3924;48.830;9.262;2024-02-21T00:47:49;8.20;;;2.80;;
7759;SDS011;3924;48.830;9.262;2024-02-21T00:50:16;8.23;;;2.80;;
7759;SDS011;3924;48.830;9.262;2024-02-21T00:52:43;7.47;;;2.43;;
7759;SDS011;3924;48.830;9.262;2024-02-21T00:55:10;6.47;;;2.53;;
7759;SDS011;3924;48.830;9.262;2024-02-21T00:57:37;7.93;;;3.10;;
7759;SDS011;3924;48.830;9.262;2024-02-21T01:00:04;9.40;;;3.37;;
7759;SDS011;3924;48.830;9.262;2024-02-21T01:02:31;7.87;;;2.50;;
7759;SDS011;3924;48.830;9.262;2024-02-21T01:04:58;6.20;;;2.50;;
7759;SDS011;3924;48.830;9.262;2024-02-21T01:07:24;4.73;;;2.90;;
7759;SDS011;3924;48.830;9.262;2024-02-21T01:09:51;5.77;;;2.77;;
7759;SDS011;3924;48.830;9.262;2024-02-21T01:12:18;5.60;;;2.60;;
7759;SDS011;3924;48.830;9.262;2024-02-21T01:14:45;5.47;;;2.50;;
7759;SDS011;3924;48.830;9.262;2024-02-21T01:17:15;5.53;;;2.73;;
7759;SDS011;3924;48.830;9.262;2024-02-21T01:19:42;4.80;;;2.37;;
7759;SDS011;3924;48.830;9.262;2024-02-21T01:22:08;7.87;;;2.50;;
7759;SDS011;3924;48.830;9.262;2024-02-21T01:24:35;12.77;;;3.20;;
7759;SDS011;3924;48.830;9.262;2024-02-21T01:27:02;6.23;;;2.70;;
7759;SDS011;3924;48.830;9.262;2024-02-21T01:29:29;8.00;;;3.00;;
7759;SDS011;3924;48.830;9.262;2024-02-21T01:31:55;5.20;;;2.93;;
7759;SDS011;3924;48.830;9.262;2024-02-21T01:34:22;5.43;;;2.83;;
7759;SDS011;3924;48.830;9.262;2024-02-21T01:36:49;5.47;;;2.60;;
7759;SDS011;3924;48.830;9.262;2024-02-21T01:39:15;6.13;;;2.70;;
7759;SDS011;3924;48.830;9.262;2024-02-21T01:41:42;5.67;;;2.40;;
7759;SDS011;3924;48.830;9.262;2024-02-21T01:44:08;9.63;;;2.70;;
7759;SDS011;3924;48.830;9.262;2024-02-21T01:46:35;6.73;;;2.70;;
7759;SDS011;3924;48.830;9.262;2024-02-21T01:49:01;7.10;;;2.07;;
7759;SDS011;3924;48.830;9.262;2024-02-21T01:51:28;7.70;;;3.13;;
7759;SDS011;3924;48.830;9.262;2024-02-21T01:53:55;5.73;;;2.37;;
7759;SDS011;3924;48.830;9.262;2024-02-21T01:56:24;5.13;;;2.67;;
7759;SDS011;3924;48.830;9.262;2024-02-21T01:58:52;4.27;;;2.37;;
7759;SDS011;3924;48.830;9.262;2024-02-21T02:01:19;8.27;;;2.80;;
7759;SDS011;3924;48.830;9.262;2024-02-21T02:03:48;7.70;;;2.63;;
7759;SDS011;3924;48.830;9.262;2024-02-21T02:06:16;5.77;;;2.83;;
7759;SDS011;3924;48.830;9.262;2024-02-21T02:08:43;6.27;;;2.70;;
7759;SDS011;3924;48.830;9.262;2024-02-21T02:11:09;7.70;;;2.93;;
7759;SDS011;3924;48.830;9.262;2024-02-21T02:13:36;5.87;;;2.97;;
7759;SDS011;3924;48.830;9.262;2024-02-21T02:16:03;6.73;;;2.90;;
7759;SDS011;3924;48.830;9.262;2024-02-21T02:18:30;4.60;;;2.50;;
7759;SDS011;3924;48.830;9.262;2024-02-21T02:20:57;6.10;;;3.00;;
7759;SDS011;3924;48.830;9.262;2024-02-21T02:25:56;5.67;;;2.80;;
7759;SDS011;3924;48.830;9.262;2024-02-21T02:28:23;7.23;;;2.90;;
7759;SDS011;3924;48.830;9.262;2024-02-21T02:30:50;7.03;;;3.00;;
7759;SDS011;3924;48.830;9.262;2024-02-21T02:33:16;3.70;;;2.47;;
7759;SDS011;3924;48.830;9.262;2024-02-21T02:35:44;7.97;;;2.70;;
7759;SDS011;3924;48.830;9.262;2024-02-21T02:38:11;9.83;;;2.80;;
7759;SDS011;3924;48.830;9.262;2024-02-21T02:40:39;7.23;;;2.73;;
7759;SDS011;3924;48.830;9.262;2024-02-21T02:43:07;6.63;;;2.40;;
7759;SDS011;3924;48.830;9.262;2024-02-21T02:45:33;4.57;;;2.37;;
7759;SDS011;3924;48.830;9.262;2024-02-21T02:48:00;8.10;;;2.43;;
7759;SDS011;3924;48.830;9.262;2024-02-21T02:50:27;5.93;;;2.23;;
7759;SDS011;3924;48.830;9.262;2024-02-21T02:52:54;7.53;;;2.67;;
7759;SDS011;3924;48.830;9.262;2024-02-21T02:55:21;4.00;;;2.30;;
7759;SDS011;3924;48.830;9.262;2024-02-21T02:57:48;4.60;;;2.67;;
7759;SDS011;3924;48.830;9.262;2024-02-21T03:00:15;7.53;;;2.70;;
7759;SDS011;3924;48.830;9.262;2024-02-21T03:02:42;4.90;;;2.70;;
7759;SDS011;3924;48.830;9.262;2024-02-21T03:05:15;5.23;;;2.40;;
7759;SDS011;3924;48.830;9.262;2024-02-21T03:07:43;5.30;;;2.23;;
7759;SDS011;3924;48.830;9.262;2024-02-21T03:10:10;4.40;;;2.57;;
7759;SDS011;3924;48.830;9.262;2024-02-21T03:12:37;4.43;;;2.50;;
7759;SDS011;3924;48.830;9.262;2024-02-21T03:15:04;7.17;;;2.40;;
7759;SDS011;3924;48.830;9.262;2024-02-21T03:17:32;6.30;;;2.40;;
7759;SDS011;3924;48.830;9.262;2024-02-21T03:20:03;3.40;;;2.03;;
7759;SDS011;3924;48.830;9.262;2024-02-21T03:22:39;7.03;;;2.63;;
7759;SDS011;3924;48.830;9.262;2024-02-21T03:25:06;5.83;;;2.33;;
7759;SDS011;3924;48.830;9.262;2024-02-21T03:27:34;4.60;;;2.40;;
7759;SDS011;3924;48.830;9.262;2024-02-21T03:30:01;5.07;;;2.43;;
7759;SDS011;3924;48.830;9.262;2024-02-21T03:32:28;7.47;;;2.83;;
7759;SDS011;3924;48.830;9.262;2024-02-21T03:34:57;2.87;;;2.40;;
7759;SDS011;3924;48.830;9.262;2024-02-21T03:37:23;8.37;;;3.00;;
7759;SDS011;3924;48.830;9.262;2024-02-21T03:39:50;7.03;;;3.20;;
7759;SDS011;3924;48.830;9.262;2024-02-21T03:42:17;5.07;;;2.73;;
7759;SDS011;3924;48.830;9.262;2024-02-21T03:44:44;7.20;;;2.97;;
7759;SDS011;3924;48.830;9.262;2024-02-21T03:47:10;4.43;;;2.60;;
7759;SDS011;3924;48.830;9.262;2024-02-21T03:49:37;8.03;;;2.97;;
7759;SDS011;3924;48.830;9.262;2024-02-21T03:52:05;5.90;;;2.47;;
7759;SDS011;3924;48.830;9.262;2024-02-21T03:54:31;6.97;;;2.87;;
7759;SDS011;3924;48.830;9.262;2024-02-21T03:56:58;7.27;;;2.53;;
7759;SDS011;3924;48.830;9.262;2024-02-21T03:59:24;7.60;;;2.73;;
7759;SDS011;3924;48.830;9.262;2024-02-21T04:01:51;7.40;;;2.97;;
7759;SDS011;3924;48.830;9.262;2024-02-21T04:04:19;4.87;;;2.90;;
7759;SDS011;3924;48.830;9.262;2024-02-21T04:06:47;8.17;;;3.20;;
7759;SDS011;3924;48.830;9.262;2024-02-21T04:09:14;5.90;;;3.00;;
7759;SDS011;3924;48.830;9.262;2024-02-21T04:11:42;8.37;;;3.10;;
7759;SDS011;3924;48.830;9.262;2024-02-21T04:14:08;11.67;;;2.83;;
7759;SDS011;3924;48.830;9.262;2024-02-21T04:16:35;11.63;;;2.97;;
7759;SDS011;3924;48.830;9.262;2024-02-21T04:19:01;3.83;;;2.83;;
7759;SDS011;3924;48.830;9.262;2024-02-21T04:21:28;6.30;;;2.40;;
7759;SDS011;3924;48.830;9.262;2024-02-21T04:23:55;4.07;;;2.13;;
7759;SDS011;3924;48.830;9.262;2024-02-21T04:26:21;4.87;;;2.13;;
7759;SDS011;3924;48.830;9.262;2024-02-21T04:28:48;5.07;;;2.47;;
7759;SDS011;3924;48.830;9.262;2024-02-21T04:31:15;6.07;;;2.93;;
7759;SDS011;3924;48.830;9.262;2024-02-21T04:33:41;4.07;;;2.23;;
7759;SDS011;3924;48.830;9.262;2024-02-21T04:36:08;4.67;;;2.63;;
7759;SDS011;3924;48.830;9.262;2024-02-21T04:38:35;7.00;;;2.70;;
7759;SDS011;3924;48.830;9.262;2024-02-21T04:41:02;11.07;;;2.70;;
7759;SDS011;3924;48.830;9.262;2024-02-21T04:43:28;4.57;;;2.23;;
7759;SDS011;3924;48.830;9.262;2024-02-21T04:45:55;6.37;;;2.40;;
7759;SDS011;3924;48.830;9.262;2024-02-21T04:48:22;7.40;;;2.83;;
7759;SDS011;3924;48.830;9.262;2024-02-21T04:50:48;5.30;;;2.37;;
7759;SDS011;3924;48.830;9.262;2024-02-21T04:53:15;7.23;;;2.40;;
7759;SDS011;3924;48.830;9.262;2024-02-21T04:55:42;3.50;;;2.30;;
7759;SDS011;3924;48.830;9.262;2024-02-21T04:58:08;4.30;;;2.30;;
7759;SDS011;3924;48.830;9.262;2024-02-21T05:00:35;3.37;;;2.60;;
7759;SDS011;3924;48.830;9.262;2024-02-21T05:03:02;7.17;;;2.33;;
7759;SDS011;3924;48.830;9.262;2024-02-21T05:05:28;5.47;;;2.10;;
7759;SDS011;3924;48.830;9.262;2024-02-21T05:07:56;5.73;;;2.67;;
7759;SDS011;3924;48.830;9.262;2024-02-21T05:10:22;6.67;;;3.70;;
7759;SDS011;3924;48.830;9.262;2024-02-21T05:12:49;5.03;;;2.73;;
7759;SDS011;3924;48.830;9.262;2024-02-21T05:15:15;6.10;;;3.37;;
7759;SDS011;3924;48.830;9.262;2024-02-21T05:17:42;3.57;;;2.20;;
7759;SDS011;3924;48.830;9.262;2024-02-21T05:20:09;5.10;;;2.70;;
7759;SDS011;3924;48.830;9.262;2024-02-21T05:22:36;5.50;;;1.90;;
7759;SDS011;3924;48.830;9.262;2024-02-21T05:25:03;6.60;;;2.10;;
7759;SDS011;3924;48.830;9.262;2024-02-21T05:27:30;2.00;;;1.80;;
7759;SDS011;3924;48.830;9.262;2024-02-21T05:29:56;5.80;;;2.10;;
7759;SDS011;3924;48.830;9.262;2024-02-21T05:32:25;3.13;;;1.70;;
7759;SDS011;3924;48.830;9.262;2024-02-21T05:34:52;5.17;;;1.90;;
7759;SDS011;3924;48.830;9.262;2024-02-21T05:37:19;7.03;;;2.20;;
7759;SDS011;3924;48.830;9.262;2024-02-21T05:39:45;5.33;;;2.10;;
7759;SDS011;3924;48.830;9.262;2024-02-21T05:42:12;5.03;;;2.07;;
7759;SDS011;3924;48.830;9.262;2024-02-21T05:44:38;7.53;;;2.40;;
7759;SDS011;3924;48.830;9.262;2024-02-21T05:47:05;5.27;;;1.77;;
7759;SDS011;3924;48.830;9.262;2024-02-21T05:49:36;7.17;;;2.47;;
7759;SDS011;3924;48.830;9.262;2024-02-21T05:52:03;3.73;;;2.07;;
7759;SDS011;3924;48.830;9.262;2024-02-21T05:54:32;3.47;;;2.07;;
7759;SDS011;3924;48.830;9.262;2024-02-21T05:56:58;5.03;;;2.07;;
7759;SDS011;3924;48.830;9.262;2024-02-21T05:59:25;4.03;;;2.00;;
7759;SDS011;3924;48.830;9.262;2024-02-21T06:01:55;4.83;;;1.97;;
7759;SDS011;3924;48.830;9.262;2024-02-21T06:04:24;6.33;;;2.03;;
7759;SDS011;3924;48.830;9.262;2024-02-21T06:06:50;5.53;;;2.27;;
7759;SDS011;3924;48.830;9.262;2024-02-21T06:09:17;3.47;;;1.63;;
7759;SDS011;3924;48.830;9.262;2024-02-21T06:11:44;6.53;;;1.90;;
7759;SDS011;3924;48.830;9.262;2024-02-21T06:14:12;3.40;;;1.83;;
7759;SDS011;3924;48.830;9.262;2024-02-21T06:16:39;4.07;;;1.60;;
7759;SDS011;3924;48.830;9.262;2024-02-21T06:19:06;4.83;;;1.63;;
7759;SDS011;3924;48.830;9.262;2024-02-21T06:21:35;6.40;;;1.80;;
7759;SDS011;3924;48.830;9.262;2024-02-21T06:24:03;5.10;;;2.13;;
7759;SDS011;3924;48.830;9.262;2024-02-21T06:26:30;3.23;;;1.80;;
7759;SDS011;3924;48.830;9.262;2024-02-21T06:28:56;6.10;;;2.20;;
7759;SDS011;3924;48.830;9.262;2024-02-21T06:31:23;2.70;;;2.27;;
7759;SDS011;3924;48.830;9.262;2024-02-21T06:33:50;6.73;;;2.00;;
7759;SDS011;3924;48.830;9.262;2024-02-21T06:36:18;7.80;;;2.17;;
7759;SDS011;3924;48.830;9.262;2024-02-21T06:38:45;3.20;;;1.83;;
7759;SDS011;3924;48.830;9.262;2024-02-21T06:41:15;3.43;;;2.00;;
7759;SDS011;3924;48.830;9.262;2024-02-21T06:43:43;6.60;;;2.20;;
7759;SDS011;3924;48.830;9.262;2024-02-21T06:46:09;2.03;;;1.73;;
7759;SDS011;3924;48.830;9.262;2024-02-21T06:48:36;4.87;;;2.23;;
7759;SDS011;3924;48.830;9.262;2024-02-21T06:51:03;4.03;;;2.30;;
7759;SDS011;3924;48.830;9.262;2024-02-21T06:53:29;2.20;;;2.00;;
7759;SDS011;3924;48.830;9.262;2024-02-21T06:55:56;8.30;;;1.97;;
7759;SDS011;3924;48.830;9.262;2024-02-21T06:58:23;3.57;;;2.03;;
7759;SDS011;3924;48.830;9.262;2024-02-21T07:00:49;3.67;;;1.60;;
7759;SDS011;3924;48.830;9.262;2024-02-21T07:03:16;9.00;;;2.13;;
7759;SDS011;3924;48.830;9.262;2024-02-21T07:05:42;6.00;;;2.80;;
7759;SDS011;3924;48.830;9.262;2024-02-21T07:08:09;5.50;;;2.00;;
7759;SDS011;3924;48.830;9.262;2024-02-21T07:10:36;2.60;;;1.93;;
7759;SDS011;3924;48.830;9.262;2024-02-21T07:13:03;4.60;;;2.10;;
7759;SDS011;3924;48.830;9.262;2024-02-21T07:15:29;5.60;;;2.10;;
7759;SDS011;3924;48.830;9.262;2024-02-21T07:17:57;4.70;;;1.90;;
7759;SDS011;3924;48.830;9.262;2024-02-21T07:20:23;6.60;;;1.90;;
7759;SDS011;3924;48.830;9.262;2024-02-21T07:22:50;11.33;;;2.40;;
7759;SDS011;3924;48.830;9.262;2024-02-21T07:25:17;3.93;;;2.10;;
7759;SDS011;3924;48.830;9.262;2024-02-21T07:27:44;2.40;;;2.03;;
7759;SDS011;3924;48.830;9.262;2024-02-21T07:30:11;4.13;;;2.20;;
7759;SDS011;3924;48.830;9.262;2024-02-21T07:32:42;6.20;;;2.20;;
7759;SDS011;3924;48.830;9.262;2024-02-21T07:35:09;8.00;;;2.13;;
7759;SDS011;3924;48.830;9.262;2024-02-21T07:37:39;2.93;;;1.87;;
7759;SDS011;3924;48.830;9.262;2024-02-21T07:40:06;2.70;;;1.97;;
7759;SDS011;3924;48.830;9.262;2024-02-21T07:42:33;2.87;;;1.77;;
7759;SDS011;3924;48.830;9.262;2024-02-21T07:44:59;3.70;;;1.73;;
7759;SDS011;3924;48.830;9.262;2024-02-21T07:47:26;3.63;;;2.17;;
7759;SDS011;3924;48.830;9.262;2024-02-21T07:49:53;4.73;;;2.30;;
7759;SDS011;3924;48.830;9.262;2024-02-21T07:52:19;5.17;;;2.10;;
7759;SDS011;3924;48.830;9.262;2024-02-21T07:54:46;4.77;;;2.30;;
7759;SDS011;3924;48.830;9.262;2024-02-21T07:57:13;5.77;;;2.20;;
7759;SDS011;3924;48.830;9.262;2024-02-21T07:59:39;6.57;;;2.23;;
7759;SDS011;3924;48.830;9.262;2024-02-21T08:02:05;4.33;;;2.03;;
7759;SDS011;3924;48.830;9.262;2024-02-21T08:04:33;6.27;;;2.37;;
7759;SDS011;3924;48.830;9.262;2024-02-21T08:07:00;2.67;;;1.90;;
7759;SDS011;3924;48.830;9.262;2024-02-21T08:09:28;5.37;;;1.90;;
7759;SDS011;3924;48.830;9.262;2024-02-21T08:11:55;3.47;;;1.53;;
7759;SDS011;3924;48.830;9.262;2024-02-21T08:14:22;4.57;;;1.87;;
7759;SDS011;3924;48.830;9.262;2024-02-21T08:16:51;8.13;;;2.30;;
7759;SDS011;3924;48.830;9.262;2024-02-21T08:19:20;2.70;;;1.53;;
7759;SDS011;3924;48.830;9.262;2024-02-21T08:21:47;3.43;;;1.90;;
7759;SDS011;3924;48.830;9.262;2024-02-21T08:24:13;4.57;;;2.00;;
7759;SDS011;3924;48.830;9.262;2024-02-21T08:26:41;2.23;;;1.80;;
7759;SDS011;3924;48.830;9.262;2024-02-21T08:29:08;5.77;;;2.00;;
7759;SDS011;3924;48.830;9.262;2024-02-21T08:31:34;5.67;;;2.17;;
7759;SDS011;3924;48.830;9.262;2024-02-21T08:34:01;3.47;;;2.33;;
7759;SDS011;3924;48.830;9.262;2024-02-21T08:36:31;4.63;;;2.73;;
7759;SDS011;3924;48.830;9.262;2024-02-21T08:38:59;8.60;;;2.77;;
7759;SDS011;3924;48.830;9.262;2024-02-21T08:41:26;8.50;;;2.90;;
7759;SDS011;3924;48.830;9.262;2024-02-21T08:44:13;8.83;;;2.03;;
7759;SDS011;3924;48.830;9.262;2024-02-21T08:46:39;5.67;;;2.13;;
7759;SDS011;3924;48.830;9.262;2024-02-21T08:49:06;3.60;;;2.20;;
7759;SDS011;3924;48.830;9.262;2024-02-21T08:51:33;5.00;;;2.57;;
7759;SDS011;3924;48.830;9.262;2024-02-21T08:54:00;6.40;;;2.43;;
7759;SDS011;3924;48.830;9.262;2024-02-21T08:56:27;4.07;;;2.27;;
7759;SDS011;3924;48.830;9.262;2024-02-21T08:58:56;4.97;;;2.30;;
7759;SDS011;3924;48.830;9.262;2024-02-21T09:01:24;6.10;;;2.30;;
7759;SDS011;3924;48.830;9.262;2024-02-21T09:03:50;3.70;;;2.30;;
7759;SDS011;3924;48.830;9.262;2024-02-21T09:06:20;3.23;;;2.03;;
7759;SDS011;3924;48.830;9.262;2024-02-21T09:08:46;4.77;;;2.33;;
7759;SDS011;3924;48.830;9.262;2024-02-21T09:11:13;3.40;;;2.10;;
7759;SDS011;3924;48.830;9.262;2024-02-21T09:13:40;4.60;;;2.10;;
7759;SDS011;3924;48.830;9.262;2024-02-21T09:16:06;6.90;;;2.27;;
7759;SDS011;3924;48.830;9.262;2024-02-21T09:18:33;8.77;;;2.37;;
7759;SDS011;3924;48.830;9.262;2024-02-21T09:20:59;3.33;;;2.23;;
7759;SDS011;3924;48.830;9.262;2024-02-21T09:23:26;3.03;;;1.90;;
7759;SDS011;3924;48.830;9.262;2024-02-21T09:25:53;6.20;;;2.40;;
7759;SDS011;3924;48.830;9.262;2024-02-21T09:28:21;5.63;;;2.50;;
7759;SDS011;3924;48.830;9.262;2024-02-21T09:30:49;6.27;;;2.33;;
7759;SDS011;3924;48.830;9.262;2024-02-21T09:33:15;5.90;;;1.87;;
7759;SDS011;3924;48.830;9.262;2024-02-21T09:35:57;6.03;;;2.20;;
7759;SDS011;3924;48.830;9.262;2024-02-21T09:38:23;5.43;;;2.30;;
7759;SDS011;3924;48.830;9.262;2024-02-21T09:40:58;8.43;;;2.30;;
7759;SDS011;3924;48.830;9.262;2024-02-21T09:43:29;4.27;;;2.47;;
7759;SDS011;3924;48.830;9.262;2024-02-21T09:45:56;7.53;;;2.10;;
7759;SDS011;3924;48.830;9.262;2024-02-21T09:51:17;3.30;;;2.00;;
7759;SDS011;3924;48.830;9.262;2024-02-21T09:53:45;9.47;;;2.10;;
7759;SDS011;3924;48.830;9.262;2024-02-21T09:56:27;4.20;;;2.03;;
7759;SDS011;3924;48.830;9.262;2024-02-21T09:58:54;5.60;;;2.10;;
7759;SDS011;3924;48.830;9.262;2024-02-21T10:01:22;2.60;;;2.10;;
7759;SDS011;3924;48.830;9.262;2024-02-21T10:04:00;8.53;;;2.30;;
7759;SDS011;3924;48.830;9.262;2024-02-21T10:06:29;5.17;;;2.13;;
7759;SDS011;3924;48.830;9.262;2024-02-21T10:08:55;3.17;;;1.83;;
7759;SDS011;3924;48.830;9.262;2024-02-21T10:11:25;9.23;;;1.80;;
7759;SDS011;3924;48.830;9.262;2024-02-21T10:14:07;2.43;;;1.60;;
7759;SDS011;3924;48.830;9.262;2024-02-21T10:16:35;3.07;;;1.67;;
7759;SDS011;3924;48.830;9.262;2024-02-21T10:19:03;3.73;;;1.80;;
7759;SDS011;3924;48.830;9.262;2024-02-21T10:21:30;4.73;;;1.67;;
7759;SDS011;3924;48.830;9.262;2024-02-21T10:23:57;5.60;;;1.70;;
7759;SDS011;3924;48.830;9.262;2024-02-21T10:26:23;8.07;;;2.00;;
7759;SDS011;3924;48.830;9.262;2024-02-21T10:28:50;6.57;;;2.03;;
7759;SDS011;3924;48.830;9.262;2024-02-21T10:31:25;2.40;;;1.30;;
7759;SDS011;3924;48.830;9.262;2024-02-21T10:33:53;4.27;;;1.60;;
7759;SDS011;3924;48.830;9.262;2024-02-21T10:36:24;4.90;;;1.30;;
7759;SDS011;3924;48.830;9.262;2024-02-21T10:38:52;3.70;;;1.30;;
7759;SDS011;3924;48.830;9.262;2024-02-21T10:41:19;1.90;;;1.13;;
7759;SDS011;3924;48.830;9.262;2024-02-21T10:43:49;2.20;;;1.10;;
7759;SDS011;3924;48.830;9.262;2024-02-21T10:46:18;3.73;;;1.10;;
7759;SDS011;3924;48.830;9.262;2024-02-21T10:48:46;3.37;;;1.47;;
7759;SDS011;3924;48.830;9.262;2024-02-21T10:51:15;4.27;;;1.30;;
7759;SDS011;3924;48.830;9.262;2024-02-21T10:56:29;2.80;;;1.43;;
7759;SDS011;3924;48.830;9.262;2024-02-21T10:59:03;3.93;;;1.23;;
7759;SDS011;3924;48.830;9.262;2024-02-21T11:01:31;2.30;;;1.20;;
7759;SDS011;3924;48.830;9.262;2024-02-21T11:04:00;5.47;;;2.10;;
7759;SDS011;3924;48.830;9.262;2024-02-21T11:06:46;3.43;;;1.73;;
7759;SDS011;3924;48.830;9.262;2024-02-21T11:09:13;5.10;;;1.80;;
7759;SDS011;3924;48.830;9.262;2024-02-21T11:11:41;2.73;;;1.50;;
7759;SDS011;3924;48.830;9.262;2024-02-21T11:14:19;3.67;;;1.60;;
7759;SDS011;3924;48.830;9.262;2024-02-21T11:16:47;4.23;;;1.33;;
7759;SDS011;3924;48.830;9.262;2024-02-21T11:19:21;4.33;;;1.40;;
7759;SDS011;3924;48.830;9.262;2024-02-21T11:21:50;6.47;;;1.70;;
7759;SDS011;3924;48.830;9.262;2024-02-21T11:27:11;4.50;;;1.83;;
7759;SDS011;3924;48.830;9.262;2024-02-21T11:29:42;1.63;;;1.20;;
7759;SDS011;3924;48.830;9.262;2024-02-21T11:32:10;3.30;;;1.40;;
7759;SDS011;3924;48.830;9.262;2024-02-21T11:34:38;2.40;;;1.40;;
7759;SDS011;3924;48.830;9.262;2024-02-21T11:37:13;2.23;;;1.33;;
7759;SDS011;3924;48.830;9.262;2024-02-21T11:39:43;4.47;;;1.43;;
7759;SDS011;3924;48.830;9.262;2024-02-21T11:42:10;3.23;;;1.10;;
7759;SDS011;3924;48.830;9.262;2024-02-21T11:44:38;1.40;;;1.30;;
7759;SDS011;3924;48.830;9.262;2024-02-21T11:47:06;1.77;;;1.17;;
7759;SDS011;3924;48.830;9.262;2024-02-21T11:49:37;0.83;;;0.83;;
7759;SDS011;3924;48.830;9.262;2024-02-21T11:52:08;1.20;;;1.10;;
7759;SDS011;3924;48.830;9.262;2024-02-21T11:54:34;4.17;;;1.27;;
7759;SDS011;3924;48.830;9.262;2024-02-21T11:57:01;3.13;;;1.40;;
7759;SDS011;3924;48.830;9.262;2024-02-21T11:59:32;1.20;;;1.10;;
7759;SDS011;3924;48.830;9.262;2024-02-21T12:01:59;4.73;;;1.50;;
7759;SDS011;3924;48.830;9.262;2024-02-21T12:04:27;5.03;;;1.30;;
7759;SDS011;3924;48.830;9.262;2024-02-21T12:06:55;5.43;;;1.10;;
7759;SDS011;3924;48.830;9.262;2024-02-21T12:09:22;5.10;;;1.30;;
7759;SDS011;3924;48.830;9.262;2024-02-21T12:12:05;1.57;;;1.07;;
7759;SDS011;3924;48.830;9.262;2024-02-21T12:14:35;2.33;;;1.00;;
7759;SDS011;3924;48.830;9.262;2024-02-21T12:17:02;1.40;;;1.10;;
7759;SDS011;3924;48.830;9.262;2024-02-21T12:19:32;2.00;;;1.00;;
7759;SDS011;3924;48.830;9.262;2024-02-21T12:22:00;4.23;;;1.40;;
7759;SDS011;3924;48.830;9.262;2024-02-21T12:24:27;0.93;;;0.80;;
7759;SDS011;3924;48.830;9.262;2024-02-21T12:26:55;1.77;;;1.17;;
7759;SDS011;3924;48.830;9.262;2024-02-21T12:29:23;3.33;;;1.53;;
7759;SDS011;3924;48.830;9.262;2024-02-21T12:31:55;2.63;;;1.30;;
7759;SDS011;3924;48.830;9.262;2024-02-21T12:34:22;1.43;;;1.20;;
7759;SDS011;3924;48.830;9.262;2024-02-21T12:37:04;1.53;;;1.20;;
7759;SDS011;3924;48.830;9.262;2024-02-21T12:39:31;6.07;;;1.30;;
7759;SDS011;3924;48.830;9.262;2024-02-21T12:41:58;2.83;;;1.50;;
7759;SDS011;3924;48.830;9.262;2024-02-21T12:44:25;3.60;;;1.20;;
7759;SDS011;3924;48.830;9.262;2024-02-21T12:46:52;1.87;;;1.00;;
7759;SDS011;3924;48.830;9.262;2024-02-21T12:49:20;4.40;;;1.17;;
7759;SDS011;3924;48.830;9.262;2024-02-21T12:51:47;1.07;;;1.07;;
7759;SDS011;3924;48.830;9.262;2024-02-21T12:54:14;8.17;;;1.60;;
7759;SDS011;3924;48.830;9.262;2024-02-21T12:56:41;2.80;;;1.07;;
7759;SDS011;3924;48.830;9.262;2024-02-21T12:59:07;2.23;;;0.97;;
7759;SDS011;3924;48.830;9.262;2024-02-21T13:01:35;2.23;;;1.00;;
7759;SDS011;3924;48.830;9.262;2024-02-21T13:04:04;3.67;;;1.00;;
7759;SDS011;3924;48.830;9.262;2024-02-21T13:06:30;1.13;;;0.80;;
7759;SDS011;3924;48.830;9.262;2024-02-21T13:08:57;2.50;;;1.03;;
7759;SDS011;3924;48.830;9.262;2024-02-21T13:11:23;1.53;;;1.00;;
7759;SDS011;3924;48.830;9.262;2024-02-21T13:13:53;1.33;;;1.23;;
7759;SDS011;3924;48.830;9.262;2024-02-21T13:16:20;2.97;;;1.00;;
7759;SDS011;3924;48.830;9.262;2024-02-21T13:18:46;4.40;;;1.17;;
7759;SDS011;3924;48.830;9.262;2024-02-21T13:21:14;0.70;;;0.70;;
7759;SDS011;3924;48.830;9.262;2024-02-21T13:23:40;0.80;;;0.80;;
7759;SDS011;3924;48.830;9.262;2024-02-21T13:26:07;1.10;;;1.00;;
7759;SDS011;3924;48.830;9.262;2024-02-21T13:28:34;1.23;;;0.90;;
7759;SDS011;3924;48.830;9.262;2024-02-21T13:31:00;2.97;;;1.40;;
7759;SDS011;3924;48.830;9.262;2024-02-21T13:33:27;0.90;;;0.90;;
7759;SDS011;3924;48.830;9.262;2024-02-21T13:35:55;1.00;;;0.90;;
7759;SDS011;3924;48.830;9.262;2024-02-21T13:38:21;3.23;;;0.90;;
7759;SDS011;3924;48.830;9.262;2024-02-21T13:40:48;3.13;;;0.90;;
7759;SDS011;3924;48.830;9.262;2024-02-21T13:43:14;1.23;;;0.90;;
7759;SDS011;3924;48.830;9.262;2024-02-21T13:45:41;0.83;;;0.80;;
7759;SDS011;3924;48.830;9.262;2024-02-21T13:48:22;0.90;;;0.90;;
7759;SDS011;3924;48.830;9.262;2024-02-21T13:50:49;2.43;;;1.00;;
7759;SDS011;3924;48.830;9.262;2024-02-21T13:53:15;4.57;;;1.10;;
7759;SDS011;3924;48.830;9.262;2024-02-21T13:55:44;2.50;;;1.30;;
7759;SDS011;3924;48.830;9.262;2024-02-21T13:58:11;1.47;;;0.90;;
7759;SDS011;3924;48.830;9.262;2024-02-21T14:00:38;4.10;;;1.40;;
7759;SDS011;3924;48.830;9.262;2024-02-21T14:03:05;2.00;;;1.00;;
7759;SDS011;3924;48.830;9.262;2024-02-21T14:05:32;3.30;;;0.90;;
7759;SDS011;3924;48.830;9.262;2024-02-21T14:07:58;2.83;;;1.10;;
7759;SDS011;3924;48.830;9.262;2024-02-21T14:10:25;2.23;;;0.87;;
7759;SDS011;3924;48.830;9.262;2024-02-21T14:12:52;2.00;;;1.03;;
7759;SDS011;3924;48.830;9.262;2024-02-21T14:15:18;0.80;;;0.80;;
7759;SDS011;3924;48.830;9.262;2024-02-21T14:17:45;1.13;;;0.87;;
7759;SDS011;3924;48.830;9.262;2024-02-21T14:20:11;0.70;;;0.70;;
7759;SDS011;3924;48.830;9.262;2024-02-21T14:22:43;2.20;;;0.90;;
7759;SDS011;3924;48.830;9.262;2024-02-21T14:25:10;1.00;;;0.90;;
7759;SDS011;3924;48.830;9.262;2024-02-21T14:27:36;1.93;;;0.70;;
7759;SDS011;3924;48.830;9.262;2024-02-21T14:30:03;4.40;;;1.13;;
7759;SDS011;3924;48.830;9.262;2024-02-21T14:32:30;4.20;;;1.23;;
7759;SDS011;3924;48.830;9.262;2024-02-21T14:34:57;4.03;;;1.00;;
7759;SDS011;3924;48.830;9.262;2024-02-21T14:37:28;1.70;;;0.70;;
7759;SDS011;3924;48.830;9.262;2024-02-21T14:39:55;1.50;;;0.80;;
7759;SDS011;3924;48.830;9.262;2024-02-21T14:42:21;1.80;;;0.90;;
7759;SDS011;3924;48.830;9.262;2024-02-21T14:44:48;1.93;;;0.83;;
7759;SDS011;3924;48.830;9.262;2024-02-21T14:47:14;1.10;;;1.00;;
7759;SDS011;3924;48.830;9.262;2024-02-21T14:49:41;0.80;;;0.80;;
7759;SDS011;3924;48.830;9.262;2024-02-21T14:52:08;1.27;;;0.70;;
7759;SDS011;3924;48.830;9.262;2024-02-21T14:54:35;5.17;;;1.10;;
7759;SDS011;3924;48.830;9.262;2024-02-21T14:57:04;1.13;;;0.83;;
7759;SDS011;3924;48.830;9.262;2024-02-21T14:59:31;1.90;;;0.93;;
7759;SDS011;3924;48.830;9.262;2024-02-21T15:02:00;0.83;;;0.83;;
7759;SDS011;3924;48.830;9.262;2024-02-21T15:04:27;1.13;;;1.00;;
7759;SDS011;3924;48.830;9.262;2024-02-21T15:06:54;0.70;;;0.70;;
7759;SDS011;3924;48.830;9.262;2024-02-21T15:09:21;1.80;;;0.90;;
7759;SDS011;3924;48.830;9.262;2024-02-21T15:11:47;0.97;;;0.97;;
7759;SDS011;3924;48.830;9.262;2024-02-21T15:14:14;2.57;;;0.90;;
7759;SDS011;3924;48.830;9.262;2024-02-21T15:16:40;1.73;;;0.93;;
7759;SDS011;3924;48.830;9.262;2024-02-21T15:19:07;1.47;;;0.97;;
7759;SDS011;3924;48.830;9.262;2024-02-21T15:21:33;1.57;;;1.20;;
7759;SDS011;3924;48.830;9.262;2024-02-21T15:24:00;3.20;;;1.20;;
7759;SDS011;3924;48.830;9.262;2024-02-21T15:26:28;1.33;;;1.17;;
7759;SDS011;3924;48.830;9.262;2024-02-21T15:28:55;0.83;;;0.83;;